createdAt,value
2022-12-01T00:00:39.136Z,10.71
2022-12-01T00:01:39.222Z,10.67
2022-12-01T00:02:39.281Z,10.72
2022-12-01T00:03:39.095Z,10.74
2022-12-01T00:04:39.098Z,10.72
2022-12-01T00:05:39.085Z,10.76
2022-12-01T00:06:39.066Z,10.76
2022-12-01T00:07:39.112Z,10.72
2022-12-01T00:08:39.046Z,10.78
2022-12-01T00:09:39.033Z,10.76
2022-12-01T00:10:39.026Z,10.67
2022-12-01T00:11:39.007Z,10.56
2022-12-01T00:12:39.014Z,10.34
2022-12-01T00:13:38.996Z,10.22
2022-12-01T00:14:38.975Z,10.22
2022-12-01T00:15:38.974Z,10.26
2022-12-01T00:16:39.036Z,10.33
2022-12-01T00:17:38.949Z,10.35
2022-12-01T00:18:38.961Z,10.28
2022-12-01T00:19:38.923Z,10.28
2022-12-01T00:20:38.905Z,10.22
2022-12-01T00:21:38.899Z,10.22
2022-12-01T00:22:38.884Z,10.07
2022-12-01T00:23:38.875Z,9.89
2022-12-01T00:24:38.885Z,9.95
2022-12-01T00:25:38.859Z,9.89
2022-12-01T00:26:38.848Z,9.80
2022-12-01T00:27:38.825Z,9.80
2022-12-01T00:28:38.825Z,9.87
2022-12-01T00:29:38.805Z,9.95
2022-12-01T00:30:38.824Z,9.82
2022-12-01T00:31:38.830Z,9.77
2022-12-01T00:32:38.775Z,9.83
2022-12-01T00:33:38.765Z,9.77
2022-12-01T00:34:38.755Z,9.58
2022-12-01T00:35:38.747Z,9.50
2022-12-01T00:36:38.746Z,9.44
2022-12-01T00:37:38.714Z,9.58
2022-12-01T00:38:38.705Z,9.62
2022-12-01T00:39:38.703Z,9.62
2022-12-01T00:40:38.685Z,9.64
2022-12-01T00:41:38.694Z,9.69
2022-12-01T00:42:38.664Z,9.66
2022-12-01T00:43:38.653Z,9.66
2022-12-01T00:44:38.637Z,9.68
2022-12-01T00:45:38.656Z,9.74
2022-12-01T00:46:38.614Z,9.73
2022-12-01T00:47:38.623Z,9.61
2022-12-01T00:48:38.635Z,9.39
2022-12-01T00:49:38.578Z,9.47
2022-12-01T00:50:38.573Z,9.59
2022-12-01T00:51:38.554Z,9.47
2022-12-01T00:52:38.553Z,9.41
2022-12-01T00:53:38.556Z,9.50
2022-12-01T00:54:38.525Z,9.34
2022-12-01T00:55:38.537Z,9.40
2022-12-01T00:56:38.508Z,9.21
2022-12-01T00:57:38.493Z,9.26
2022-12-01T00:58:38.483Z,9.40
2022-12-01T00:59:38.484Z,9.28
2022-12-01T01:00:38.455Z,9.21
2022-12-01T01:01:38.494Z,8.87
2022-12-01T01:02:38.482Z,8.87
2022-12-01T01:03:38.427Z,8.92
2022-12-01T01:04:38.414Z,8.92
2022-12-01T01:05:38.444Z,9.06
2022-12-01T01:06:38.391Z,9.10
2022-12-01T01:07:38.378Z,8.87
2022-12-01T01:08:38.373Z,8.79
2022-12-01T01:09:38.353Z,8.67
2022-12-01T01:10:38.365Z,8.73
2022-12-01T01:11:38.332Z,8.87
2022-12-01T01:12:38.324Z,8.91
2022-12-01T01:13:38.304Z,8.95
2022-12-01T01:14:38.303Z,8.88
2022-12-01T01:15:38.361Z,8.82
2022-12-01T01:16:38.367Z,8.84
2022-12-01T01:17:38.263Z,8.74
2022-12-01T01:18:38.253Z,8.73
2022-12-01T01:19:38.232Z,8.79
2022-12-01T01:20:38.235Z,8.87
2022-12-01T01:21:38.213Z,8.82
2022-12-01T01:22:38.245Z,8.78
2022-12-01T01:23:38.202Z,8.87
2022-12-01T01:24:38.182Z,8.89
2022-12-01T01:25:38.173Z,8.97
2022-12-01T01:26:38.710Z,8.97
2022-12-01T01:27:38.246Z,8.94
2022-12-01T01:28:38.160Z,8.94
2022-12-01T01:29:38.123Z,8.87
2022-12-01T01:30:38.152Z,8.94
2022-12-01T01:31:38.104Z,8.95
2022-12-01T01:32:38.097Z,8.92
2022-12-01T01:33:38.120Z,8.87
2022-12-01T01:34:38.073Z,8.89
2022-12-01T01:35:38.065Z,8.79
2022-12-01T01:36:38.050Z,8.79
2022-12-01T01:37:38.032Z,8.79
2022-12-01T01:38:38.023Z,8.69
2022-12-01T01:39:38.032Z,8.66
2022-12-01T01:40:38.002Z,8.73
2022-12-01T01:41:37.993Z,8.78
2022-12-01T01:42:37.982Z,8.79
2022-12-01T01:43:37.962Z,8.81
2022-12-01T01:44:37.962Z,8.79
2022-12-01T01:45:38.016Z,8.84
2022-12-01T01:46:37.941Z,8.73
2022-12-01T01:47:37.930Z,8.55
2022-12-01T01:48:37.911Z,8.48
2022-12-01T01:49:37.901Z,8.48
2022-12-01T01:50:37.892Z,8.52
2022-12-01T01:51:37.904Z,8.48
2022-12-01T01:52:37.872Z,8.42
2022-12-01T01:53:37.853Z,8.42
2022-12-01T01:54:37.842Z,8.41
2022-12-01T01:55:37.831Z,8.48
2022-12-01T01:56:37.822Z,8.41
2022-12-01T01:57:37.821Z,8.33
2022-12-01T01:58:37.799Z,8.34
2022-12-01T01:59:37.780Z,8.23
2022-12-01T02:00:37.773Z,8.18
2022-12-01T02:01:37.839Z,8.31
2022-12-01T02:02:37.803Z,8.41
2022-12-01T02:03:37.731Z,8.36
2022-12-01T02:04:37.730Z,8.37
2022-12-01T02:05:37.721Z,8.28
2022-12-01T02:06:37.710Z,8.19
2022-12-01T02:07:37.712Z,8.24
2022-12-01T02:08:37.700Z,8.31
2022-12-01T02:09:37.670Z,8.33
2022-12-01T02:10:37.662Z,8.23
2022-12-01T02:11:37.651Z,8.27
2022-12-01T02:12:37.641Z,8.19
2022-12-01T02:13:37.621Z,8.10
2022-12-01T02:14:37.642Z,8.13
2022-12-01T02:15:37.608Z,8.19
2022-12-01T02:16:37.625Z,8.20
2022-12-01T02:17:41.574Z,8.36
2022-12-01T02:18:37.570Z,8.19
2022-12-01T02:19:37.552Z,8.16
2022-12-01T02:20:37.560Z,8.26
2022-12-01T02:21:37.530Z,8.30
2022-12-01T02:22:37.520Z,8.28
2022-12-01T02:23:37.501Z,8.20
2022-12-01T02:24:37.500Z,8.18
2022-12-01T02:25:37.501Z,8.20
2022-12-01T02:26:37.471Z,8.24
2022-12-01T02:27:37.460Z,8.26
2022-12-01T02:28:37.450Z,8.23
2022-12-01T02:29:37.436Z,8.36
2022-12-01T02:30:37.503Z,8.49
2022-12-01T02:31:37.439Z,8.55
2022-12-01T02:32:37.408Z,8.58
2022-12-01T02:33:37.391Z,8.63
2022-12-01T02:34:37.380Z,8.63
2022-12-01T02:35:37.369Z,8.66
2022-12-01T02:36:37.359Z,8.66
2022-12-01T02:37:37.379Z,8.70
2022-12-01T02:38:37.340Z,8.60
2022-12-01T02:39:37.325Z,8.34
2022-12-01T02:40:37.316Z,8.16
2022-12-01T02:41:37.307Z,8.13
2022-12-01T02:42:37.298Z,8.20
2022-12-01T02:43:37.299Z,8.26
2022-12-01T02:44:37.269Z,8.36
2022-12-01T02:45:37.263Z,8.41
2022-12-01T02:46:37.280Z,8.48
2022-12-01T02:47:37.229Z,8.53
2022-12-01T02:48:37.218Z,8.56
2022-12-01T02:49:37.229Z,8.52
2022-12-01T02:50:37.199Z,8.60
2022-12-01T02:51:37.189Z,8.41
2022-12-01T02:52:37.198Z,8.31
2022-12-01T02:53:37.179Z,8.19
2022-12-01T02:54:37.177Z,8.27
2022-12-01T02:55:37.147Z,8.30
2022-12-01T02:56:37.138Z,8.28
2022-12-01T02:57:37.119Z,8.26
2022-12-01T02:58:37.108Z,8.23
2022-12-01T02:59:37.097Z,8.15
2022-12-01T03:00:37.108Z,8.16
2022-12-01T03:01:37.163Z,8.15
2022-12-01T03:02:37.128Z,8.12
2022-12-01T03:03:37.047Z,8.12
2022-12-01T03:04:37.071Z,8.12
2022-12-01T03:05:37.050Z,7.98
2022-12-01T03:06:37.018Z,8.00
2022-12-01T03:07:37.048Z,8.03
2022-12-01T03:08:36.998Z,8.10
2022-12-01T03:09:36.978Z,8.18
2022-12-01T03:10:36.968Z,8.19
2022-12-01T03:11:36.977Z,8.15
2022-12-01T03:12:36.947Z,8.12
2022-12-01T03:13:36.936Z,8.18
2022-12-01T03:14:36.997Z,8.15
2022-12-01T03:15:37.009Z,8.00
2022-12-01T03:16:36.897Z,8.03
2022-12-01T03:17:36.908Z,8.01
2022-12-01T03:18:36.876Z,8.10
2022-12-01T03:19:36.867Z,8.23
2022-12-01T03:20:36.859Z,8.16
2022-12-01T03:21:36.838Z,8.05
2022-12-01T03:22:36.829Z,8.09
2022-12-01T03:23:36.837Z,8.08
2022-12-01T03:24:36.806Z,8.13
2022-12-01T03:25:36.796Z,8.15
2022-12-01T03:26:36.786Z,8.06
2022-12-01T03:27:36.768Z,8.05
2022-12-01T03:28:36.756Z,8.03
2022-12-01T03:29:36.776Z,8.00
2022-12-01T03:30:36.738Z,8.12
2022-12-01T03:31:36.790Z,8.18
2022-12-01T03:32:36.717Z,8.23
2022-12-01T03:33:36.697Z,8.19
2022-12-01T03:34:36.693Z,8.19
2022-12-01T03:35:36.697Z,8.18
2022-12-01T03:36:36.677Z,8.16
2022-12-01T03:37:36.649Z,8.10
2022-12-01T03:38:36.648Z,8.09
2022-12-01T03:39:36.644Z,8.16
2022-12-01T03:40:36.626Z,8.27
2022-12-01T03:41:36.634Z,8.28
2022-12-01T03:42:36.637Z,8.20
2022-12-01T03:43:36.593Z,8.16
2022-12-01T03:44:36.577Z,8.10
2022-12-01T03:45:36.576Z,8.13
2022-12-01T03:46:36.577Z,8.16
2022-12-01T03:47:36.616Z,8.20
2022-12-01T03:48:36.536Z,8.15
2022-12-01T03:49:36.525Z,8.10
2022-12-01T03:50:36.504Z,7.97
2022-12-01T03:51:36.496Z,7.91
2022-12-01T03:52:36.530Z,7.94
2022-12-01T03:53:36.476Z,7.97
2022-12-01T03:54:36.463Z,7.90
2022-12-01T03:55:36.454Z,7.77
2022-12-01T03:56:36.436Z,7.76
2022-12-01T03:57:36.425Z,7.77
2022-12-01T03:58:36.434Z,7.80
2022-12-01T03:59:36.406Z,7.82
2022-12-01T04:00:36.386Z,7.91
2022-12-01T04:01:43.484Z,8.00
2022-12-01T04:02:36.413Z,7.88
2022-12-01T04:03:36.353Z,7.91
2022-12-01T04:04:36.833Z,7.88
2022-12-01T04:05:36.362Z,7.97
2022-12-01T04:06:36.323Z,8.08
2022-12-01T04:07:36.395Z,8.03
2022-12-01T04:08:36.301Z,7.98
2022-12-01T04:09:36.293Z,8.10
2022-12-01T04:10:36.293Z,8.00
2022-12-01T04:11:36.263Z,8.01
2022-12-01T04:12:36.250Z,8.00
2022-12-01T04:13:36.252Z,8.01
2022-12-01T04:14:36.252Z,8.09
2022-12-01T04:15:36.246Z,8.08
2022-12-01T04:16:36.300Z,8.01
2022-12-01T04:17:36.202Z,8.03
2022-12-01T04:18:36.185Z,8.06
2022-12-01T04:19:36.171Z,8.05
2022-12-01T04:20:36.154Z,8.01
2022-12-01T04:21:36.151Z,7.94
2022-12-01T04:22:36.172Z,7.82
2022-12-01T04:23:36.123Z,7.88
2022-12-01T04:24:36.110Z,7.83
2022-12-01T04:25:36.103Z,7.79
2022-12-01T04:26:36.111Z,7.79
2022-12-01T04:27:36.091Z,7.83
2022-12-01T04:28:36.071Z,7.82
2022-12-01T04:29:36.050Z,7.72
2022-12-01T04:30:36.036Z,7.69
2022-12-01T04:31:36.102Z,7.76
2022-12-01T04:32:36.018Z,7.75
2022-12-01T04:33:36.043Z,7.87
2022-12-01T04:34:35.994Z,7.97
2022-12-01T04:35:35.982Z,7.97
2022-12-01T04:36:35.967Z,8.06
2022-12-01T04:37:35.973Z,8.09
2022-12-01T04:38:35.943Z,8.13
2022-12-01T04:39:35.954Z,8.16
2022-12-01T04:40:35.933Z,8.19
2022-12-01T04:41:35.911Z,8.03
2022-12-01T04:42:35.900Z,7.95
2022-12-01T04:43:35.889Z,7.97
2022-12-01T04:44:35.900Z,8.03
2022-12-01T04:45:35.891Z,8.01
2022-12-01T04:46:35.925Z,7.85
2022-12-01T04:47:35.843Z,7.90
2022-12-01T04:48:35.841Z,7.93
2022-12-01T04:49:35.823Z,7.94
2022-12-01T04:50:35.820Z,7.93
2022-12-01T04:51:35.800Z,7.90
2022-12-01T04:52:35.780Z,7.97
2022-12-01T04:53:35.771Z,7.95
2022-12-01T04:54:35.758Z,7.93
2022-12-01T04:55:35.771Z,7.91
2022-12-01T04:56:35.749Z,7.85
2022-12-01T04:57:35.722Z,7.79
2022-12-01T04:58:35.711Z,7.69
2022-12-01T04:59:35.700Z,7.76
2022-12-01T05:00:35.787Z,7.85
2022-12-01T05:01:35.729Z,7.79
2022-12-01T05:02:35.661Z,7.63
2022-12-01T05:03:35.669Z,7.75
2022-12-01T05:04:35.642Z,7.58
2022-12-01T05:05:35.640Z,7.63
2022-12-01T05:06:35.660Z,7.77
2022-12-01T05:07:35.646Z,7.82
2022-12-01T05:08:35.600Z,7.90
2022-12-01T05:09:35.590Z,7.80
2022-12-01T05:10:35.569Z,7.80
2022-12-01T05:11:35.570Z,7.82
2022-12-01T05:12:35.575Z,7.77
2022-12-01T05:13:35.538Z,7.75
2022-12-01T05:14:35.529Z,7.63
2022-12-01T05:15:35.519Z,7.58
2022-12-01T05:16:35.578Z,7.60
2022-12-01T05:17:36.981Z,7.58
2022-12-01T05:18:35.547Z,7.58
2022-12-01T05:19:35.470Z,7.57
2022-12-01T05:20:35.468Z,7.66
2022-12-01T05:21:35.446Z,7.58
2022-12-01T05:23:03.791Z,7.66
2022-12-01T05:23:36.440Z,7.70
2022-12-01T05:24:35.415Z,7.72
2022-12-01T05:25:35.399Z,7.75
2022-12-01T05:26:35.382Z,7.85
2022-12-01T05:27:35.369Z,7.94
2022-12-01T05:28:35.364Z,7.83
2022-12-01T05:29:35.378Z,7.88
2022-12-01T05:30:35.348Z,7.90
2022-12-01T05:31:35.387Z,7.88
2022-12-01T05:32:35.309Z,7.85
2022-12-01T05:33:35.301Z,7.87
2022-12-01T05:34:35.288Z,7.85
2022-12-01T05:35:35.308Z,7.90
2022-12-01T05:36:35.268Z,8.00
2022-12-01T05:37:35.257Z,8.08
2022-12-01T05:38:35.242Z,8.05
2022-12-01T05:39:35.228Z,8.01
2022-12-01T05:40:35.219Z,7.98
2022-12-01T05:41:35.227Z,7.90
2022-12-01T05:42:35.198Z,7.90
2022-12-01T05:43:35.186Z,7.95
2022-12-01T05:44:35.176Z,7.94
2022-12-01T05:45:35.227Z,7.85
2022-12-01T05:46:35.150Z,7.82
2022-12-01T05:47:35.165Z,7.87
2022-12-01T05:48:35.118Z,7.83
2022-12-01T05:49:35.115Z,7.85
2022-12-01T05:50:35.100Z,7.91
2022-12-01T05:51:35.097Z,7.82
2022-12-01T05:52:35.119Z,7.75
2022-12-01T05:53:35.068Z,7.67
2022-12-01T05:54:35.058Z,7.58
2022-12-01T05:55:35.046Z,7.70
2022-12-01T05:56:35.027Z,7.70
2022-12-01T05:57:35.025Z,7.60
2022-12-01T05:58:35.029Z,7.51
2022-12-01T05:59:35.005Z,7.40
2022-12-01T06:00:34.988Z,7.47
2022-12-01T06:01:35.062Z,7.51
2022-12-01T06:02:34.966Z,7.58
2022-12-01T06:03:34.976Z,7.67
2022-12-01T06:04:34.988Z,7.58
2022-12-01T06:05:34.928Z,7.57
2022-12-01T06:06:34.919Z,7.61
2022-12-01T06:07:34.936Z,7.63
2022-12-01T06:08:34.900Z,7.63
2022-12-01T06:09:34.955Z,7.67
2022-12-01T06:10:34.866Z,7.77
2022-12-01T06:11:34.865Z,7.73
2022-12-01T06:12:34.850Z,7.72
2022-12-01T06:13:34.836Z,7.73
2022-12-01T06:14:34.827Z,7.67
2022-12-01T06:15:34.946Z,7.60
2022-12-01T06:16:34.837Z,7.60
2022-12-01T06:17:39.962Z,7.57
2022-12-01T06:18:35.783Z,7.75
2022-12-01T06:19:34.775Z,7.70
2022-12-01T06:20:34.755Z,7.70
2022-12-01T06:21:34.786Z,7.70
2022-12-01T06:22:34.746Z,7.72
2022-12-01T06:23:34.725Z,7.72
2022-12-01T06:24:34.727Z,7.69
2022-12-01T06:25:34.705Z,7.58
2022-12-01T06:26:34.797Z,7.60
2022-12-01T06:27:34.677Z,7.67
2022-12-01T06:28:34.667Z,7.63
2022-12-01T06:29:39.083Z,7.54
2022-12-01T06:30:35.653Z,7.50
2022-12-01T06:31:34.667Z,7.53
2022-12-01T06:32:34.636Z,7.60
2022-12-01T06:33:34.605Z,7.69
2022-12-01T06:34:34.598Z,7.67
2022-12-01T06:35:34.597Z,7.75
2022-12-01T06:36:34.576Z,7.75
2022-12-01T06:37:34.566Z,7.67
2022-12-01T06:38:34.575Z,7.57
2022-12-01T06:39:34.545Z,7.51
2022-12-01T06:40:34.535Z,7.63
2022-12-01T06:41:34.516Z,7.63
2022-12-01T06:42:34.517Z,7.53
2022-12-01T06:43:34.496Z,7.69
2022-12-01T06:44:34.507Z,7.73
2022-12-01T06:45:34.557Z,7.82
2022-12-01T06:46:34.525Z,7.94
2022-12-01T06:47:34.455Z,7.91
2022-12-01T06:48:34.463Z,7.87
2022-12-01T06:49:34.434Z,7.85
2022-12-01T06:50:34.664Z,7.69
2022-12-01T06:51:34.405Z,7.60
2022-12-01T06:52:34.393Z,7.66
2022-12-01T06:53:34.384Z,7.63
2022-12-01T06:54:34.375Z,7.56
2022-12-01T06:55:34.384Z,7.58
2022-12-01T06:56:34.373Z,7.63
2022-12-01T06:57:34.343Z,7.66
2022-12-01T06:58:34.323Z,7.63
2022-12-01T06:59:34.314Z,7.69
2022-12-01T07:00:34.295Z,7.61
2022-12-01T07:01:34.308Z,7.54
2022-12-01T07:02:34.369Z,7.58
2022-12-01T07:03:34.275Z,7.72
2022-12-01T07:04:34.263Z,7.70
2022-12-01T07:05:34.252Z,7.67
2022-12-01T07:06:34.234Z,7.75
2022-12-01T07:07:34.286Z,7.87
2022-12-01T07:08:34.223Z,7.85
2022-12-01T07:09:34.210Z,7.80
2022-12-01T07:10:34.183Z,7.76
2022-12-01T07:11:34.192Z,7.69
2022-12-01T07:12:34.173Z,7.79
2022-12-01T07:13:34.243Z,7.76
2022-12-01T07:14:34.143Z,7.75
2022-12-01T07:15:34.133Z,7.66
2022-12-01T07:16:34.227Z,7.63
2022-12-01T07:17:34.123Z,7.61
2022-12-01T07:18:34.095Z,7.69
2022-12-01T07:19:34.115Z,7.67
2022-12-01T07:20:34.081Z,7.61
2022-12-01T07:21:34.063Z,7.57
2022-12-01T07:22:34.052Z,7.45
2022-12-01T07:23:34.042Z,7.40
2022-12-01T07:24:34.036Z,7.48
2022-12-01T07:25:34.043Z,7.47
2022-12-01T07:26:34.006Z,7.54
2022-12-01T07:27:34.032Z,7.42
2022-12-01T07:28:33.980Z,7.45
2022-12-01T07:29:33.973Z,7.50
2022-12-01T07:30:34.006Z,7.45
2022-12-01T07:31:33.972Z,7.50
2022-12-01T07:32:33.943Z,7.47
2022-12-01T07:33:33.932Z,7.47
2022-12-01T07:34:33.917Z,7.43
2022-12-01T07:35:33.911Z,7.48
2022-12-01T07:36:33.896Z,7.48
2022-12-01T07:37:33.902Z,7.32
2022-12-01T07:38:33.882Z,7.42
2022-12-01T07:39:33.933Z,7.38
2022-12-01T07:40:33.857Z,7.40
2022-12-01T07:41:33.841Z,7.29
2022-12-01T07:42:33.822Z,7.39
2022-12-01T07:43:33.842Z,7.42
2022-12-01T07:44:33.812Z,7.51
2022-12-01T07:45:33.801Z,7.54
2022-12-01T07:46:33.857Z,7.70
2022-12-01T07:47:33.772Z,7.69
2022-12-01T07:48:33.763Z,7.54
2022-12-01T07:49:33.772Z,7.50
2022-12-01T07:50:33.740Z,7.36
2022-12-01T07:51:33.734Z,7.45
2022-12-01T07:52:33.715Z,7.40
2022-12-01T07:53:33.725Z,7.38
2022-12-01T07:54:33.721Z,7.36
2022-12-01T07:55:33.688Z,7.43
2022-12-01T07:56:33.680Z,7.47
2022-12-01T07:57:33.665Z,7.47
2022-12-01T07:58:33.650Z,7.56
2022-12-01T07:59:33.645Z,7.39
2022-12-01T08:00:33.668Z,7.31
2022-12-01T08:01:33.658Z,7.32
2022-12-01T08:02:33.656Z,7.39
2022-12-01T08:03:33.621Z,7.43
2022-12-01T08:04:33.581Z,7.56
2022-12-01T08:05:33.609Z,7.60
2022-12-01T08:06:33.590Z,7.47
2022-12-01T08:07:33.610Z,7.31
2022-12-01T08:08:33.548Z,7.32
2022-12-01T08:09:33.530Z,7.36
2022-12-01T08:10:33.520Z,7.38
2022-12-01T08:11:33.552Z,7.36
2022-12-01T08:12:33.499Z,7.50
2022-12-01T08:13:33.484Z,7.47
2022-12-01T08:14:33.523Z,7.56
2022-12-01T08:15:33.517Z,7.54
2022-12-01T08:16:33.459Z,7.60
2022-12-01T08:17:33.469Z,7.63
2022-12-01T08:18:33.429Z,7.72
2022-12-01T08:19:33.463Z,7.77
2022-12-01T08:20:33.411Z,7.79
2022-12-01T08:21:33.390Z,7.79
2022-12-01T08:22:33.669Z,7.70
2022-12-01T08:23:33.398Z,7.50
2022-12-01T08:24:33.364Z,7.38
2022-12-01T08:25:33.350Z,7.39
2022-12-01T08:26:33.383Z,7.36
2022-12-01T08:27:33.329Z,7.42
2022-12-01T08:28:33.321Z,7.45
2022-12-01T08:29:33.319Z,7.36
2022-12-01T08:30:33.299Z,7.36
2022-12-01T08:31:33.302Z,7.36
2022-12-01T08:32:33.278Z,7.38
2022-12-01T08:33:33.266Z,7.39
2022-12-01T08:34:33.278Z,7.56
2022-12-01T08:35:33.247Z,7.70
2022-12-01T08:36:33.229Z,7.80
2022-12-01T08:37:33.218Z,7.83
2022-12-01T08:38:33.209Z,7.87
2022-12-01T08:39:33.196Z,7.82
2022-12-01T08:40:33.209Z,7.77
2022-12-01T08:41:33.172Z,7.66
2022-12-01T08:42:33.170Z,7.67
2022-12-01T08:43:57.245Z,7.67
2022-12-01T08:44:34.192Z,7.70
2022-12-01T08:45:33.128Z,7.75
2022-12-01T08:46:33.291Z,7.70
2022-12-01T08:47:33.106Z,7.80
2022-12-01T08:48:33.097Z,7.79
2022-12-01T08:49:33.078Z,7.85
2022-12-01T08:50:33.076Z,7.97
2022-12-01T08:51:33.058Z,8.03
2022-12-01T08:52:33.068Z,8.09
2022-12-01T08:53:33.038Z,8.18
2022-12-01T08:54:33.029Z,8.23
2022-12-01T08:55:33.028Z,8.23
2022-12-01T08:56:33.011Z,8.27
2022-12-01T08:57:33.019Z,8.24
2022-12-01T08:58:32.995Z,8.15
2022-12-01T08:59:32.976Z,8.10
2022-12-01T09:00:32.959Z,8.20
2022-12-01T09:01:33.207Z,8.30
2022-12-01T09:02:33.048Z,8.34
2022-12-01T09:03:32.946Z,8.41
2022-12-01T09:04:32.915Z,8.46
2022-12-01T09:05:32.899Z,8.36
2022-12-01T09:06:32.907Z,8.33
2022-12-01T09:07:32.916Z,8.24
2022-12-01T09:08:32.867Z,8.18
2022-12-01T09:09:32.867Z,8.13
2022-12-01T09:10:32.844Z,8.19
2022-12-01T09:11:32.831Z,8.19
2022-12-01T09:12:32.827Z,8.15
2022-12-01T09:13:32.807Z,8.12
2022-12-01T09:14:32.847Z,8.20
2022-12-01T09:15:32.776Z,8.28
2022-12-01T09:16:32.848Z,8.26
2022-12-01T09:17:32.757Z,8.10
2022-12-01T09:18:32.746Z,8.15
2022-12-01T09:19:32.767Z,8.24
2022-12-01T09:20:32.752Z,8.34
2022-12-01T09:21:32.708Z,8.41
2022-12-01T09:22:32.935Z,8.48
2022-12-01T09:23:32.686Z,8.52
2022-12-01T09:24:32.684Z,8.58
2022-12-01T09:25:32.657Z,8.56
2022-12-01T09:26:32.678Z,8.67
2022-12-01T09:27:32.637Z,8.60
2022-12-01T09:28:32.626Z,8.38
2022-12-01T09:29:32.616Z,8.38
2022-12-01T09:30:32.596Z,8.44
2022-12-01T09:31:32.643Z,8.63
2022-12-01T09:32:32.595Z,8.60
2022-12-01T09:33:32.565Z,8.78
2022-12-01T09:34:32.557Z,8.76
2022-12-01T09:35:32.545Z,8.64
2022-12-01T09:36:32.535Z,8.69
2022-12-01T09:37:32.537Z,8.76
2022-12-01T09:38:32.516Z,8.79
2022-12-01T09:39:32.499Z,8.70
2022-12-01T09:40:32.498Z,8.69
2022-12-01T09:41:32.485Z,8.71
2022-12-01T09:42:35.390Z,8.60
2022-12-01T09:43:32.467Z,8.51
2022-12-01T09:44:32.445Z,8.52
2022-12-01T09:45:32.434Z,8.46
2022-12-01T09:46:32.494Z,8.41
2022-12-01T09:47:32.397Z,8.33
2022-12-01T09:48:32.485Z,8.34
2022-12-01T09:49:32.376Z,8.37
2022-12-01T09:50:32.376Z,8.44
2022-12-01T09:51:32.357Z,8.46
2022-12-01T09:52:32.345Z,8.46
2022-12-01T09:53:32.336Z,8.49
2022-12-01T09:54:32.349Z,8.46
2022-12-01T09:55:32.316Z,8.45
2022-12-01T09:56:32.314Z,8.41
2022-12-01T09:57:32.300Z,8.48
2022-12-01T09:58:32.286Z,8.28
2022-12-01T09:59:32.285Z,8.24
2022-12-01T10:00:32.304Z,8.18
2022-12-01T10:01:32.324Z,8.16
2022-12-01T10:02:32.346Z,8.19
2022-12-01T10:03:32.226Z,8.19
2022-12-01T10:04:32.206Z,8.13
2022-12-01T10:05:32.239Z,8.15
2022-12-01T10:06:32.354Z,8.16
2022-12-01T10:07:32.208Z,8.20
2022-12-01T10:08:32.155Z,8.28
2022-12-01T10:09:32.169Z,8.37
2022-12-01T10:10:32.134Z,8.41
2022-12-01T10:11:32.134Z,8.44
2022-12-01T10:12:32.210Z,8.30
2022-12-01T10:13:32.105Z,8.30
2022-12-01T10:14:32.094Z,8.36
2022-12-01T10:15:32.074Z,8.41
2022-12-01T10:16:32.277Z,8.41
2022-12-01T10:17:32.054Z,8.41
2022-12-01T10:18:32.074Z,8.45
2022-12-01T10:19:32.026Z,8.51
2022-12-01T10:20:32.015Z,8.45
2022-12-01T10:21:32.022Z,8.49
2022-12-01T10:22:32.034Z,8.49
2022-12-01T10:23:31.997Z,8.52
2022-12-01T10:24:31.974Z,8.53
2022-12-01T10:25:31.962Z,8.49
2022-12-01T10:26:31.943Z,8.44
2022-12-01T10:27:31.933Z,8.38
2022-12-01T10:28:31.953Z,8.45
2022-12-01T10:29:31.917Z,8.52
2022-12-01T10:30:31.904Z,8.60
2022-12-01T10:31:31.930Z,8.61
2022-12-01T10:32:32.018Z,8.63
2022-12-01T10:33:31.867Z,8.58
2022-12-01T10:34:31.887Z,8.55
2022-12-01T10:35:31.834Z,8.42
2022-12-01T10:36:31.976Z,8.26
2022-12-01T10:37:31.879Z,8.33
2022-12-01T10:38:31.805Z,8.38
2022-12-01T10:39:31.795Z,8.44
2022-12-01T10:40:31.804Z,8.55
2022-12-01T10:41:31.773Z,8.61
2022-12-01T10:42:31.763Z,8.70
2022-12-01T10:43:31.743Z,8.73
2022-12-01T10:44:31.744Z,8.61
2022-12-01T10:45:31.784Z,8.76
2022-12-01T10:46:31.743Z,8.64
2022-12-01T10:47:31.694Z,8.52
2022-12-01T10:48:31.691Z,8.64
2022-12-01T10:49:31.673Z,8.71
2022-12-01T10:50:31.712Z,8.53
2022-12-01T10:51:31.667Z,8.53
2022-12-01T10:52:33.209Z,8.53
2022-12-01T10:53:32.526Z,8.27
2022-12-01T10:54:31.623Z,8.09
2022-12-01T10:55:31.851Z,8.03
2022-12-01T10:56:31.958Z,8.15
2022-12-01T10:57:31.755Z,8.19
2022-12-01T10:58:31.818Z,8.19
2022-12-01T10:59:31.953Z,8.20
2022-12-01T11:00:57.964Z,8.26
2022-12-01T11:01:32.741Z,8.20
2022-12-01T11:02:31.720Z,8.26
2022-12-01T11:03:32.033Z,8.15
2022-12-01T11:04:31.555Z,8.12
2022-12-01T11:05:31.493Z,8.06
2022-12-01T11:06:31.518Z,8.05
2022-12-01T11:07:31.556Z,7.94
2022-12-01T11:08:31.571Z,7.97
2022-12-01T11:09:31.502Z,8.13
2022-12-01T11:10:31.551Z,8.05
2022-12-01T11:11:31.593Z,8.00
2022-12-01T11:12:31.452Z,7.95
2022-12-01T11:13:31.447Z,7.90
2022-12-01T11:14:31.561Z,7.80
2022-12-01T11:15:31.471Z,7.91
2022-12-01T11:16:31.554Z,7.95
2022-12-01T11:17:31.432Z,7.88
2022-12-01T11:18:31.679Z,7.94
2022-12-01T11:19:31.431Z,7.88
2022-12-01T11:20:31.500Z,7.93
2022-12-01T11:21:31.346Z,7.91
2022-12-01T11:22:31.291Z,7.88
2022-12-01T11:23:31.287Z,7.91
2022-12-01T11:24:31.274Z,7.91
2022-12-01T11:25:31.269Z,7.93
2022-12-01T11:26:31.261Z,7.94
2022-12-01T11:27:31.254Z,8.08
2022-12-01T11:28:34.913Z,8.18
2022-12-01T11:29:31.214Z,8.26
2022-12-01T11:30:31.201Z,8.23
2022-12-01T11:31:31.293Z,8.28
2022-12-01T11:32:31.179Z,8.27
2022-12-01T11:33:31.161Z,8.28
2022-12-01T11:34:31.175Z,8.24
2022-12-01T11:35:31.149Z,8.19
2022-12-01T11:36:31.131Z,8.18
2022-12-01T11:37:31.134Z,8.09
2022-12-01T11:38:31.138Z,8.10
2022-12-01T11:39:31.100Z,8.16
2022-12-01T11:40:31.081Z,8.08
2022-12-01T11:41:31.069Z,7.98
2022-12-01T11:42:31.060Z,8.08
2022-12-01T11:43:31.076Z,8.00
2022-12-01T11:44:51.379Z,7.95
2022-12-01T11:45:32.073Z,8.03
2022-12-01T11:46:31.021Z,8.10
2022-12-01T11:47:31.000Z,8.23
2022-12-01T11:48:30.991Z,8.28
2022-12-01T11:49:31.001Z,8.10
2022-12-01T11:50:30.961Z,8.06
2022-12-01T11:51:30.957Z,8.06
2022-12-01T11:52:30.941Z,8.18
2022-12-01T11:53:30.931Z,8.20
2022-12-01T11:54:30.919Z,8.24
2022-12-01T11:55:30.930Z,8.06
2022-12-01T11:56:30.890Z,8.13
2022-12-01T11:57:34.637Z,8.24
2022-12-01T11:58:30.917Z,8.28
2022-12-01T11:59:30.860Z,8.36
2022-12-01T12:00:30.851Z,8.46
2022-12-01T12:01:30.859Z,8.55
2022-12-01T12:02:30.853Z,8.45
2022-12-01T12:03:30.865Z,8.37
2022-12-01T12:04:30.803Z,8.24
2022-12-01T12:05:30.791Z,8.31
2022-12-01T12:06:40.514Z,8.09
2022-12-01T12:07:31.874Z,8.12
2022-12-01T12:08:30.811Z,8.15
2022-12-01T12:09:30.750Z,8.31
2022-12-01T12:10:30.767Z,8.49
2022-12-01T12:11:30.720Z,8.58
2022-12-01T12:12:30.740Z,8.66
2022-12-01T12:13:30.700Z,8.49
2022-12-01T12:14:30.691Z,8.45
2022-12-01T12:15:30.679Z,8.34
2022-12-01T12:16:32.200Z,8.31
2022-12-01T12:17:30.755Z,8.15
2022-12-01T12:18:30.660Z,8.26
2022-12-01T12:19:33.907Z,8.33
2022-12-01T12:20:31.618Z,8.37
2022-12-01T12:21:30.610Z,8.51
2022-12-01T12:22:30.614Z,8.45
2022-12-01T12:23:30.605Z,8.53
2022-12-01T12:24:30.619Z,8.51
2022-12-01T12:25:30.582Z,8.34
2022-12-01T12:26:30.582Z,8.41
2022-12-01T12:27:30.540Z,8.58
2022-12-01T12:28:30.520Z,8.73
2022-12-01T12:29:30.510Z,8.55
2022-12-01T12:30:30.595Z,8.58
2022-12-01T12:31:30.490Z,8.48
2022-12-01T12:32:30.478Z,8.58
2022-12-01T12:33:30.469Z,8.61
2022-12-01T12:34:30.468Z,8.76
2022-12-01T12:35:30.449Z,8.48
2022-12-01T12:36:30.461Z,8.31
2022-12-01T12:37:30.451Z,8.42
2022-12-01T12:38:30.419Z,8.33
2022-12-01T12:39:30.408Z,8.36
2022-12-01T12:40:30.385Z,8.18
2022-12-01T12:41:30.381Z,7.97
2022-12-01T12:42:30.380Z,8.13
2022-12-01T12:43:30.433Z,8.20
2022-12-01T12:44:36.597Z,8.27
2022-12-01T12:45:31.328Z,8.28
2022-12-01T12:46:30.356Z,8.42
2022-12-01T12:47:30.309Z,8.42
2022-12-01T12:48:30.359Z,8.33
2022-12-01T12:49:30.289Z,8.13
2022-12-01T12:50:30.271Z,7.95
2022-12-01T12:51:30.276Z,7.90
2022-12-01T12:52:30.246Z,7.85
2022-12-01T12:53:30.238Z,7.95
2022-12-01T12:54:30.300Z,7.88
2022-12-01T12:55:30.208Z,7.88
2022-12-01T12:56:30.218Z,7.83
2022-12-01T12:57:30.220Z,7.75
2022-12-01T12:58:30.192Z,7.79
2022-12-01T12:59:30.168Z,7.69
2022-12-01T13:00:30.179Z,7.63
2022-12-01T13:01:30.210Z,7.69
2022-12-01T13:02:30.208Z,7.77
2022-12-01T13:03:33.908Z,7.72
2022-12-01T13:04:30.167Z,7.47
2022-12-01T13:05:30.100Z,7.54
2022-12-01T13:06:30.097Z,7.57
2022-12-01T13:07:30.141Z,7.75
2022-12-01T13:08:30.059Z,7.87
2022-12-01T13:09:30.057Z,7.91
2022-12-01T13:10:30.039Z,7.97
2022-12-01T13:11:30.027Z,7.97
2022-12-01T13:12:30.039Z,7.95
2022-12-01T13:13:30.002Z,7.94
2022-12-01T13:14:29.998Z,8.05
2022-12-01T13:15:30.017Z,8.18
2022-12-01T13:16:29.966Z,8.05
2022-12-01T13:17:29.968Z,8.10